Normal, IL

7:32 PM CST on December 09, 2016 (GMT -0600)
Den2 | | Change Station

Elev 843 ft 40.53 °N, 88.99 °W | Updated 9 seconds ago

Overcast
Overcast
22.5 °F
Feels Like 22 °F
N
1.3
Wind Variable Wind from WSW
Gusts 2.5 mph

Today
High -- | Low -- °F
--% Chance of Precip.
Yesterday
High -- | Low -- °F
Precip. -- in
Pressure 30.62 in
Visibility 9.0 miles
Clouds Overcast 2800 ft
Windchill 22 °F
Dew Point 10 °F
Humidity 58%
Rainfall 0.00 in
Snow Depth Not available.
7:08 AM 4:29 PM
Waxing Gibbous, 79% visible
METAR KBMI 100056Z 26007KT 9SM -SN OVC028 M06/M09 A3054 RMK AO2 SLP368 P0000 T10611094
Pressure 30.62 in
Visibility 9.0 miles
Clouds Overcast 2800 ft
Windchill 22 °F
Dew Point 10 °F
Humidity 58%
Rainfall 0.00 in
Snow Depth Not available.
7:08 AM 4:29 PM
Waxing Gibbous, 79% visible
METAR KBMI 100056Z 26007KT 9SM -SN OVC028 M06/M09 A3054 RMK AO2 SLP368 P0000 T10611094

10-Day Weather Forecast

Almanac

Astronomy

Dec. 09, 2016 Rise Set
Actual Time
Civil Twilight
Nautical Twilight
Astronomical Twilight
Moon
Length of Visible Light
Length of Day
Tomorrow will be .
, % of the Moon is Illuminated

Today's Extremes

State Highs State Lows

Community

WunderPhotos

Upload Photos

1,956,534 photos uploaded!

WunderBlog® & News

Nearby

Air Quality

  Air Quality AQ Index Pollutant
Not available.

Snow Depth

Station Depth Elevation

Earthquake Activity

City Distance Mag. Time & Date
Minimum magnitude displayed is 2.5.

Coastal Water Temperatures

Place Temperature

Stations

Nearby Weather Stations

Station Location Temp. Windchill Dew Point Humidity Wind Precip. Elev Updated Type
                   

Watches & Warnings

There are currently no watches in effect.